Preview of NWS' New Version of Forecast
This preview is not operational and should not be used for support decisions.

Terminal Aerodrome Forecast (TAF)

Issued by National Weather Service (NWS)

                            
000
FTUS43 KDMX 142329
TAFALO
TAF
KALO 142329Z 1500/1524 18008KT P6SM SCT200
      TEMPO 1500/1502 VRB25G35KT 3SM -TSRA BKN040CB
     FM150400 19008KT P6SM VCTS SCT040CB OVC080 WS020/24035KT
     FM151000 23005KT P6SM FEW110
     FM151400 26005KT P6SM BKN030
     FM151800 31004KT P6SM FEW250=